Time;durP1;ratioP1;P1;durP2;ratioP2;P2;SDS_P1;SDS_P2;PMS_P1;PMS_P2;Temp;Humidity;BMP_temperature;BMP_pressure;BME280_temperature;BME280_humidity;BME280_pressure;Samples;Min_cycle;Max_cycle;Signal;HPM_P1;HPM_P2
2023/03/30 00:00:01;;;;;;;11.15;6.18;;;;;;;;;;10183500;28;20052;-66
2023/03/30 00:05:01;;;;;;;10.07;7.57;;;;;;;;;;10186148;28;20059;-66
2023/03/30 00:09:57;;;;;;;8.93;7.65;;;;;;;;;;10177611;28;20496;-66
2023/03/30 00:14:51;;;;;;;9.73;7.55;;;;;;;;;;10185192;28;20056;-66
2023/03/30 00:19:45;;;;;;;13.30;7.57;;;;;;;;;;10182873;28;20043;-66
2023/03/30 00:24:38;;;;;;;8.60;7.28;;;;;;;;;;10185299;28;20044;-66
2023/03/30 00:29:31;;;;;;;9.90;8.55;;;;;;;;;;10185261;28;20420;-65
2023/03/30 00:34:24;;;;;;;10.85;8.70;;;;;;;;;;10177930;28;20079;-65
2023/03/30 00:39:21;;;;;;;10.20;8.13;;;;;;;;;;10184939;28;20048;-66
2023/03/30 00:44:51;;;;;;;9.88;8.27;;;;;;;;;;10174502;28;20051;-65
2023/03/30 00:49:44;;;;;;;13.88;9.85;;;;;;;;;;10171198;28;20426;-65
2023/03/30 00:54:38;;;;;;;14.48;7.57;;;;;;;;;;10163909;28;20044;-65
2023/03/30 00:59:31;;;;;;;13.75;7.10;;;;;;;;;;10176162;28;20113;-65
2023/03/30 01:04:24;;;;;;;10.70;6.95;;;;;;;;;;10192784;28;20074;-65
2023/03/30 01:09:19;;;;;;;9.10;6.78;;;;;;;;;;10189490;28;20044;-65
2023/03/30 01:14:14;;;;;;;10.95;5.28;;;;;;;;;;10183131;28;20507;-65
2023/03/30 01:19:47;;;;;;;8.68;5.40;;;;;;;;;;10190938;28;20040;-65
2023/03/30 01:25:19;;;;;;;8.40;5.60;;;;;;;;;;10117884;28;20052;-65
2023/03/30 01:30:33;;;;;;;8.15;5.20;;;;;;;;;;10191671;28;20044;-65
2023/03/30 01:35:41;;;;;;;6.30;5.00;;;;;;;;;;10191340;28;20060;-65
2023/03/30 01:40:37;;;;;;;8.27;4.53;;;;;;;;;;10189284;28;20097;-65
2023/03/30 01:45:46;;;;;;;8.20;6.78;;;;;;;;;;10162212;28;20523;-65
2023/03/30 01:50:48;;;;;;;9.45;7.55;;;;;;;;;;10156513;28;20051;-65
2023/03/30 01:55:45;;;;;;;18.75;8.23;;;;;;;;;;10177812;28;20078;-65
2023/03/30 02:00:39;;;;;;;12.73;8.27;;;;;;;;;;10172636;28;20443;-65
2023/03/30 02:05:32;;;;;;;13.35;8.88;;;;;;;;;;10179299;28;20480;-65
2023/03/30 02:10:27;;;;;;;10.77;8.27;;;;;;;;;;10186861;28;20036;-66
2023/03/30 02:15:21;;;;;;;10.18;8.98;;;;;;;;;;10156470;28;20052;-65
2023/03/30 02:20:16;;;;;;;9.63;8.35;;;;;;;;;;10184180;28;20397;-65
2023/03/30 02:25:09;;;;;;;14.70;8.90;;;;;;;;;;10181141;28;20052;-65
2023/03/30 02:30:07;;;;;;;10.90;9.07;;;;;;;;;;10189659;28;20056;-65
2023/03/30 02:35:09;;;;;;;14.10;8.52;;;;;;;;;;10173880;28;20052;-65
2023/03/30 02:40:12;;;;;;;10.85;9.43;;;;;;;;;;10181690;28;20051;-65
2023/03/30 02:45:29;;;;;;;15.57;8.63;;;;;;;;;;10170681;28;20638;-65
2023/03/30 02:50:56;;;;;;;16.65;8.85;;;;;;;;;;10168066;28;20488;-65
2023/03/30 02:56:43;;;;;;;9.40;8.23;;;;;;;;;;10174972;28;20144;-65
2023/03/30 03:02:03;;;;;;;9.10;8.10;;;;;;;;;;10177209;28;20051;-65
2023/03/30 03:06:58;;;;;;;10.45;7.32;;;;;;;;;;10177856;28;20028;-65
2023/03/30 03:11:51;;;;;;;10.02;6.68;;;;;;;;;;10170951;28;20404;-65
2023/03/30 03:16:44;;;;;;;10.93;6.78;;;;;;;;;;10179405;28;20573;-65
2023/03/30 03:21:39;;;;;;;7.25;5.85;;;;;;;;;;10169709;28;20044;-64
2023/03/30 03:26:33;;;;;;;8.77;5.50;;;;;;;;;;10160686;28;20516;-65
2023/03/30 03:31:26;;;;;;;14.55;6.13;;;;;;;;;;10174181;28;20079;-65
2023/03/30 03:36:21;;;;;;;7.07;5.60;;;;;;;;;;10186367;28;20044;-65
2023/03/30 03:41:17;;;;;;;14.80;9.05;;;;;;;;;;10179367;28;20063;-64
2023/03/30 03:46:11;;;;;;;10.65;7.22;;;;;;;;;;10168328;28;20588;-65
2023/03/30 03:51:04;;;;;;;11.75;7.40;;;;;;;;;;10169180;28;20044;-65
2023/03/30 03:55:59;;;;;;;7.82;7.05;;;;;;;;;;10167558;28;20068;-65
2023/03/30 04:01:18;;;;;;;10.15;7.15;;;;;;;;;;10167556;28;20044;-65
2023/03/30 04:06:11;;;;;;;13.55;7.20;;;;;;;;;;10167769;28;20048;-65
2023/03/30 04:11:10;;;;;;;8.90;6.78;;;;;;;;;;10167230;28;20068;-65
2023/03/30 04:16:31;;;;;;;9.75;6.70;;;;;;;;;;10167924;28;20050;-65
2023/03/30 04:21:48;;;;;;;10.10;7.57;;;;;;;;;;10176171;28;20044;-65
2023/03/30 04:27:01;;;;;;;14.10;7.57;;;;;;;;;;10184506;28;20062;-64
2023/03/30 04:32:02;;;;;;;11.98;6.80;;;;;;;;;;10189408;28;20130;-64
2023/03/30 04:37:30;;;;;;;11.63;7.57;;;;;;;;;;10153336;28;20580;-64
2023/03/30 04:42:41;;;;;;;12.77;7.00;;;;;;;;;;10184101;28;20067;-64
2023/03/30 04:48:01;;;;;;;9.07;7.07;;;;;;;;;;10155032;28;20058;-64
2023/03/30 04:53:14;;;;;;;10.25;7.68;;;;;;;;;;10182977;28;20431;-66
2023/03/30 04:58:25;;;;;;;14.25;8.45;;;;;;;;;;10178567;28;20121;-66
2023/03/30 05:03:28;;;;;;;13.25;7.60;;;;;;;;;;10161816;28;20057;-66
2023/03/30 05:08:51;;;;;;;9.90;6.05;;;;;;;;;;10083095;28;20066;-65
2023/03/30 05:13:46;;;;;;;17.02;6.47;;;;;;;;;;10185776;28;20072;-62
2023/03/30 05:18:49;;;;;;;7.15;4.20;;;;;;;;;;10179309;28;20504;-74
2023/03/30 05:24:01;;;;;;;11.57;3.55;;;;;;;;;;10168379;28;20076;-74
2023/03/30 05:29:16;;;;;;;7.10;3.15;;;;;;;;;;10172867;28;20059;-63
2023/03/30 05:34:27;;;;;;;10.65;4.18;;;;;;;;;;10189803;28;20193;-63
2023/03/30 05:39:39;;;;;;;9.68;3.70;;;;;;;;;;10189316;28;20405;-63
2023/03/30 05:44:32;;;;;;;14.07;4.40;;;;;;;;;;10167009;28;20052;-63
2023/03/30 05:49:44;;;;;;;12.45;4.90;;;;;;;;;;10186560;28;20165;-63
2023/03/30 05:54:49;;;;;;;9.35;5.00;;;;;;;;;;10169956;28;20055;-63
2023/03/30 06:00:17;;;;;;;10.88;4.18;;;;;;;;;;10154094;28;20054;-63
2023/03/30 06:05:21;;;;;;;11.02;4.55;;;;;;;;;;10170339;28;20083;-63
2023/03/30 06:10:20;;;;;;;12.40;4.18;;;;;;;;;;10190187;28;20102;-64
2023/03/30 06:15:14;;;;;;;12.60;4.82;;;;;;;;;;10172933;28;20058;-64
2023/03/30 06:20:12;;;;;;;25.50;7.07;;;;;;;;;;10177800;28;20483;-64
2023/03/30 06:25:12;;;;;;;17.52;4.80;;;;;;;;;;10168009;28;20493;-64
2023/03/30 06:30:08;;;;;;;13.80;6.82;;;;;;;;;;10168181;28;20087;-64
2023/03/30 06:35:03;;;;;;;9.82;5.40;;;;;;;;;;10153415;28;20044;-64
2023/03/30 06:39:56;;;;;;;18.95;5.30;;;;;;;;;;10178201;28;20055;-64
2023/03/30 06:44:49;;;;;;;19.02;5.95;;;;;;;;;;10187426;28;20109;-64
2023/03/30 06:49:43;;;;;;;16.67;7.05;;;;;;;;;;10170119;28;20055;-64
2023/03/30 06:55:13;;;;;;;10.73;6.35;;;;;;;;;;10170570;28;20090;-64
2023/03/30 07:00:12;;;;;;;15.60;6.88;;;;;;;;;;10195783;28;20101;-63
2023/03/30 07:05:28;;;;;;;17.38;7.13;;;;;;;;;;10161598;28;20051;-63
2023/03/30 07:10:44;;;;;;;15.20;7.68;;;;;;;;;;10182862;28;20550;-64
2023/03/30 07:15:38;;;;;;;14.75;8.65;;;;;;;;;;10180134;28;20516;-64
2023/03/30 07:20:32;;;;;;;11.57;9.23;;;;;;;;;;10181241;28;20510;-64
2023/03/30 07:25:40;;;;;;;20.25;9.52;;;;;;;;;;10168832;28;20109;-64
2023/03/30 07:30:40;;;;;;;14.23;8.75;;;;;;;;;;10160426;28;20052;-64
2023/03/30 07:35:35;;;;;;;12.48;7.47;;;;;;;;;;10166693;28;20036;-64
2023/03/30 07:40:31;;;;;;;20.75;8.30;;;;;;;;;;10176061;28;20048;-63
2023/03/30 07:45:23;;;;;;;15.98;8.82;;;;;;;;;;10167903;28;20515;-63
2023/03/30 07:50:18;;;;;;;26.17;9.45;;;;;;;;;;10163315;28;20097;-64
2023/03/30 07:55:12;;;;;;;14.43;7.22;;;;;;;;;;10182039;28;20070;-64
2023/03/30 08:00:15;;;;;;;23.02;8.70;;;;;;;;;;10180803;28;20084;-64
2023/03/30 08:05:28;;;;;;;13.85;7.68;;;;;;;;;;10176473;28;20152;-64
2023/03/30 08:10:53;;;;;;;17.13;8.02;;;;;;;;;;10178256;28;20192;-61
2023/03/30 08:15:48;;;;;;;16.30;8.73;;;;;;;;;;10167663;28;20044;-63
2023/03/30 08:20:56;;;;;;;19.50;8.30;;;;;;;;;;10185982;28;20467;-64
2023/03/30 08:25:51;;;;;;;21.75;7.90;;;;;;;;;;10190837;28;20051;-63
2023/03/30 08:30:45;;;;;;;20.33;8.00;;;;;;;;;;10188553;28;20047;-62
2023/03/30 08:35:38;;;;;;;15.27;8.52;;;;;;;;;;10190609;28;20142;-62
2023/03/30 08:40:32;;;;;;;15.50;8.70;;;;;;;;;;10190273;28;20044;-62
2023/03/30 08:45:30;;;;;;;16.70;8.15;;;;;;;;;;10193287;28;20056;-61
2023/03/30 08:50:35;;;;;;;16.15;8.55;;;;;;;;;;10165185;28;20044;-62
2023/03/30 08:55:54;;;;;;;16.83;8.57;;;;;;;;;;10184364;28;20076;-62
2023/03/30 09:01:23;;;;;;;13.13;8.13;;;;;;;;;;10187837;28;20419;-62
2023/03/30 09:06:29;;;;;;;15.55;9.32;;;;;;;;;;10114525;28;20079;-62
2023/03/30 09:11:35;;;;;;;22.60;9.57;;;;;;;;;;10174455;28;20063;-62
2023/03/30 09:16:48;;;;;;;12.27;7.07;;;;;;;;;;10167909;28;20052;-62
2023/03/30 09:21:42;;;;;;;11.20;7.65;;;;;;;;;;10167203;28;20075;-62
2023/03/30 09:26:45;;;;;;;14.35;7.60;;;;;;;;;;10188766;28;20504;-62
2023/03/30 09:31:48;;;;;;;10.68;8.40;;;;;;;;;;10197067;28;20093;-62
2023/03/30 09:37:21;;;;;;;11.50;8.73;;;;;;;;;;10172766;28;20051;-62
2023/03/30 09:42:35;;;;;;;17.00;9.18;;;;;;;;;;9984730;28;20050;-62
2023/03/30 09:47:35;;;;;;;11.40;8.00;;;;;;;;;;10158329;28;20144;-62
2023/03/30 09:52:31;;;;;;;11.30;7.60;;;;;;;;;;10190758;28;20044;-62
2023/03/30 09:57:29;;;;;;;15.57;8.60;;;;;;;;;;10174960;28;20415;-61
2023/03/30 10:02:26;;;;;;;18.13;8.88;;;;;;;;;;10181639;28;20129;-62
2023/03/30 10:07:31;;;;;;;11.68;7.40;;;;;;;;;;10190339;28;20063;-62
2023/03/30 10:12:25;;;;;;;13.07;6.55;;;;;;;;;;10172403;28;20040;-62
2023/03/30 10:17:20;;;;;;;7.72;5.57;;;;;;;;;;10189487;28;20063;-62
2023/03/30 10:22:19;;;;;;;4.78;3.92;;;;;;;;;;10171988;28;20076;-62
2023/03/30 10:27:14;;;;;;;11.88;5.57;;;;;;;;;;10189842;28;20523;-62
2023/03/30 10:32:13;;;;;;;7.45;4.35;;;;;;;;;;10185084;28;20512;-62
2023/03/30 10:37:11;;;;;;;11.82;4.57;;;;;;;;;;10188643;28;20040;-62
2023/03/30 10:42:06;;;;;;;5.90;3.55;;;;;;;;;;10160389;28;20048;-62
2023/03/30 10:47:21;;;;;;;12.45;4.75;;;;;;;;;;10187227;28;20052;-62
2023/03/30 10:52:44;;;;;;;8.35;4.35;;;;;;;;;;10171971;28;20136;-62
2023/03/30 10:57:50;;;;;;;5.75;3.33;;;;;;;;;;10178822;28;20048;-62
2023/03/30 11:02:50;;;;;;;8.98;3.92;;;;;;;;;;10185502;28;20036;-62
2023/03/30 11:07:49;;;;;;;8.85;4.28;;;;;;;;;;10187863;28;20052;-63
2023/03/30 11:13:07;;;;;;;7.82;3.75;;;;;;;;;;10187972;28;20143;-62
2023/03/30 11:18:04;;;;;;;5.65;4.00;;;;;;;;;;10175318;28;20048;-63
2023/03/30 11:23:35;;;;;;;8.40;4.30;;;;;;;;;;10169290;28;20047;-63
2023/03/30 11:28:52;;;;;;;6.45;3.40;;;;;;;;;;10181231;28;20048;-62
2023/03/30 11:33:46;;;;;;;;;;;;;;;;;;10149776;28;20059;-61
2023/03/30 11:38:47;;;;;;;6.18;2.92;;;;;;;;;;10176634;28;19943;-63
2023/03/30 11:43:40;;;;;;;8.82;3.00;;;;;;;;;;10171650;28;20048;-61
2023/03/30 11:48:37;;;;;;;6.88;3.47;;;;;;;;;;10169967;28;20047;-63
2023/03/30 11:53:51;;;;;;;4.50;2.37;;;;;;;;;;10180866;28;20135;-63
2023/03/30 11:59:08;;;;;;;7.60;2.83;;;;;;;;;;10178785;28;20040;-62
2023/03/30 12:04:08;;;;;;;13.43;4.80;;;;;;;;;;10156293;28;20740;-62
2023/03/30 12:09:23;;;;;;;5.00;3.28;;;;;;;;;;10169715;28;20087;-62
2023/03/30 12:14:44;;;;;;;8.48;4.25;;;;;;;;;;10163062;28;20156;-62
2023/03/30 12:19:40;;;;;;;6.13;2.80;;;;;;;;;;10173958;28;20048;-62
2023/03/30 12:25:13;;;;;;;5.40;2.75;;;;;;;;;;10143656;28;20421;-63
2023/03/30 12:30:14;;;;;;;8.07;3.22;;;;;;;;;;10160348;28;20127;-62
2023/03/30 12:35:48;;;;;;;4.28;2.13;;;;;;;;;;10164018;28;20062;-63
2023/03/30 12:40:46;;;;;;;4.57;1.88;;;;;;;;;;10182369;28;20117;-65
2023/03/30 12:46:01;;;;;;;;;;;;;;;;;;10176073;28;20645;-64
2023/03/30 12:50:59;;;;;;;4.95;2.60;;;;;;;;;;10176396;28;19928;-64
2023/03/30 12:56:03;;;;;;;5.38;3.05;;;;;;;;;;10181891;28;20052;-64
2023/03/30 13:01:19;;;;;;;7.45;4.47;;;;;;;;;;10167006;28;20097;-63
2023/03/30 13:06:29;;;;;;;6.40;3.90;;;;;;;;;;10179680;28;20032;-63
2023/03/30 13:11:48;;;;;;;8.65;3.22;;;;;;;;;;10155344;28;20180;-63
2023/03/30 13:17:02;;;;;;;5.55;3.08;;;;;;;;;;10175741;28;20048;-64
2023/03/30 13:22:05;;;;;;;7.50;3.75;;;;;;;;;;10166643;28;20044;-64
2023/03/30 13:27:13;;;;;;;11.52;3.83;;;;;;;;;;10184744;28;20067;-64
2023/03/30 13:32:31;;;;;;;9.18;3.38;;;;;;;;;;10187129;28;20504;-64
2023/03/30 13:37:46;;;;;;;6.20;3.92;;;;;;;;;;10146845;28;20459;-63
2023/03/30 13:42:52;;;;;;;10.98;4.97;;;;;;;;;;10184783;28;20457;-64
2023/03/30 13:48:09;;;;;;;10.07;4.28;;;;;;;;;;10186603;28;20080;-64
2023/03/30 13:53:07;;;;;;;6.95;3.75;;;;;;;;;;10180854;28;20052;-64
2023/03/30 13:58:03;;;;;;;9.93;4.10;;;;;;;;;;10183892;28;20493;-64
2023/03/30 14:02:57;;;;;;;8.20;4.35;;;;;;;;;;10178939;28;20056;-65
2023/03/30 14:07:52;;;;;;;8.98;4.93;;;;;;;;;;10173882;28;20478;-64
2023/03/30 14:12:50;;;;;;;10.60;5.13;;;;;;;;;;10161218;28;20048;-64
2023/03/30 14:17:46;;;;;;;;;;;;;;;;;;10169911;28;20303;-64
2023/03/30 14:22:41;;;;;;;9.38;3.53;;;;;;;;;;10174487;28;19923;-65
2023/03/30 14:27:37;;;;;;;8.63;3.03;;;;;;;;;;10158934;28;20509;-65
2023/03/30 14:32:31;;;;;;;11.75;4.80;;;;;;;;;;10182665;28;20131;-66
2023/03/30 14:37:25;;;;;;;8.55;3.92;;;;;;;;;;10168415;28;20105;-66
2023/03/30 14:42:26;;;;;;;6.55;3.10;;;;;;;;;;10165567;28;20089;-65
2023/03/30 14:47:21;;;;;;;12.90;4.22;;;;;;;;;;10148893;28;20397;-65
2023/03/30 14:52:22;;;;;;;7.88;4.03;;;;;;;;;;10156773;28;20459;-65
2023/03/30 14:57:16;;;;;;;5.47;3.20;;;;;;;;;;10174935;28;20052;-64
2023/03/30 15:02:21;;;;;;;9.52;3.97;;;;;;;;;;10185848;28;20047;-64
2023/03/30 15:07:15;;;;;;;5.95;3.25;;;;;;;;;;10159185;28;20186;-65
2023/03/30 15:12:17;;;;;;;6.75;3.42;;;;;;;;;;10183159;28;20048;-63
2023/03/30 15:17:15;;;;;;;8.15;3.30;;;;;;;;;;10173184;28;20077;-65
2023/03/30 15:22:34;;;;;;;4.93;3.20;;;;;;;;;;10160953;28;20047;-64
2023/03/30 15:27:34;;;;;;;6.70;3.63;;;;;;;;;;10176605;28;20051;-63
2023/03/30 15:32:34;;;;;;;8.32;3.95;;;;;;;;;;10182414;28;20463;-64
2023/03/30 15:37:28;;;;;;;4.75;3.90;;;;;;;;;;10166531;28;20052;-66
2023/03/30 15:42:30;;;;;;;8.88;3.63;;;;;;;;;;10178158;28;20130;-64
2023/03/30 15:47:23;;;;;;;10.70;3.60;;;;;;;;;;10174919;28;20084;-65
2023/03/30 15:52:43;;;;;;;6.18;3.10;;;;;;;;;;10181501;28;20416;-65
2023/03/30 15:57:41;;;;;;;7.43;3.05;;;;;;;;;;10182451;28;20512;-65
2023/03/30 16:02:33;;;;;;;6.88;3.25;;;;;;;;;;10184351;28;20047;-64
2023/03/30 16:07:28;;;;;;;9.32;2.95;;;;;;;;;;10182354;28;20435;-64
2023/03/30 16:12:25;;;;;;;6.90;3.65;;;;;;;;;;10167390;28;20480;-64
2023/03/30 16:17:19;;;;;;;8.90;3.00;;;;;;;;;;10181525;28;20101;-64
2023/03/30 16:22:14;;;;;;;5.18;2.92;;;;;;;;;;10184733;28;20505;-64
2023/03/30 16:27:10;;;;;;;7.80;3.00;;;;;;;;;;10185398;28;20047;-64
2023/03/30 16:32:04;;;;;;;7.97;3.33;;;;;;;;;;10175614;28;20496;-64
2023/03/30 16:36:57;;;;;;;4.55;3.40;;;;;;;;;;10185587;28;20050;-64
2023/03/30 16:41:51;;;;;;;7.18;3.20;;;;;;;;;;10183490;28;20558;-64
2023/03/30 16:46:44;;;;;;;6.32;2.83;;;;;;;;;;10182491;28;20143;-64
2023/03/30 16:51:36;;;;;;;6.60;2.58;;;;;;;;;;10172804;28;20051;-64
2023/03/30 16:56:31;;;;;;;4.93;2.28;;;;;;;;;;10184075;28;20060;-64
2023/03/30 17:01:24;;;;;;;7.38;1.65;;;;;;;;;;10181379;28;20048;-64
2023/03/30 17:06:20;;;;;;;2.67;1.38;;;;;;;;;;10182521;28;20134;-64
2023/03/30 17:11:14;;;;;;;3.28;1.55;;;;;;;;;;10184090;28;20044;-64
2023/03/30 17:16:12;;;;;;;6.50;2.28;;;;;;;;;;10184011;28;20105;-64
2023/03/30 17:21:08;;;;;;;3.33;1.63;;;;;;;;;;10185324;28;20062;-64
2023/03/30 17:26:02;;;;;;;14.48;2.60;;;;;;;;;;10184042;28;20568;-64
2023/03/30 17:30:57;;;;;;;4.95;2.30;;;;;;;;;;10180392;28;20386;-64
2023/03/30 17:35:56;;;;;;;5.40;2.60;;;;;;;;;;10184410;28;20052;-64
2023/03/30 17:40:50;;;;;;;9.75;4.68;;;;;;;;;;10186107;28;20079;-64
2023/03/30 17:45:45;;;;;;;11.40;5.57;;;;;;;;;;10191207;28;20055;-64
2023/03/30 17:50:42;;;;;;;9.93;6.32;;;;;;;;;;10191621;28;20052;-64
2023/03/30 17:55:36;;;;;;;13.17;6.87;;;;;;;;;;10191266;28;20063;-63
2023/03/30 18:00:31;;;;;;;17.17;7.78;;;;;;;;;;10190133;28;20479;-64
2023/03/30 18:05:26;;;;;;;14.35;8.80;;;;;;;;;;10189993;28;20075;-64
2023/03/30 18:10:27;;;;;;;12.00;9.77;;;;;;;;;;10189078;28;20116;-64
2023/03/30 18:15:24;;;;;;;14.20;10.13;;;;;;;;;;10190071;28;20083;-65
2023/03/30 18:20:22;;;;;;;17.50;10.10;;;;;;;;;;10189190;28;20684;-64
2023/03/30 18:25:16;;;;;;;14.13;10.77;;;;;;;;;;10189878;28;20048;-64
2023/03/30 18:30:39;;;;;;;14.95;10.60;;;;;;;;;;10188856;28;20051;-63
2023/03/30 18:35:33;;;;;;;15.80;11.85;;;;;;;;;;10188199;28;20097;-64
2023/03/30 18:40:35;;;;;;;23.58;12.23;;;;;;;;;;10180324;28;20074;-64
2023/03/30 18:45:34;;;;;;;13.68;12.23;;;;;;;;;;10171218;28;20058;-64
2023/03/30 18:50:38;;;;;;;14.45;11.52;;;;;;;;;;10182289;28;20047;-64
2023/03/30 18:55:34;;;;;;;18.95;12.57;;;;;;;;;;10188732;28;20048;-64
2023/03/30 19:00:30;;;;;;;20.65;13.20;;;;;;;;;;10162471;28;20055;-64
2023/03/30 19:05:25;;;;;;;15.50;12.65;;;;;;;;;;10188133;28;20097;-64
2023/03/30 19:10:21;;;;;;;19.90;12.15;;;;;;;;;;10187695;28;20044;-65
2023/03/30 19:15:26;;;;;;;24.90;12.43;;;;;;;;;;10188669;28;20052;-64
2023/03/30 19:20:21;;;;;;;17.77;13.80;;;;;;;;;;10187133;28;20086;-65
2023/03/30 19:25:15;;;;;;;20.98;13.77;;;;;;;;;;10187507;28;20052;-65
2023/03/30 19:30:10;;;;;;;20.63;12.75;;;;;;;;;;10186619;28;20728;-64
2023/03/30 19:35:04;;;;;;;22.35;13.60;;;;;;;;;;10185708;28;20441;-64
2023/03/30 19:39:58;;;;;;;15.60;12.18;;;;;;;;;;10182517;28;20396;-64
2023/03/30 19:44:53;;;;;;;36.88;16.58;;;;;;;;;;10175517;28;20447;-64
2023/03/30 19:49:47;;;;;;;31.58;17.45;;;;;;;;;;10181989;28;20070;-64
2023/03/30 19:54:40;;;;;;;21.33;13.88;;;;;;;;;;10186351;28;20044;-65
2023/03/30 19:59:34;;;;;;;21.05;12.63;;;;;;;;;;10185742;28;20534;-65
2023/03/30 20:04:27;;;;;;;18.67;12.27;;;;;;;;;;10186602;28;20044;-63
2023/03/30 20:09:22;;;;;;;16.58;12.70;;;;;;;;;;10186382;28;20044;-63
2023/03/30 20:14:15;;;;;;;19.45;12.15;;;;;;;;;;10178748;28;20055;-67
2023/03/30 20:19:08;;;;;;;18.33;12.02;;;;;;;;;;10184148;28;20561;-64
2023/03/30 20:24:20;;;;;;;15.00;12.65;;;;;;;;;;10186519;28;20067;-63
2023/03/30 20:29:13;;;;;;;14.57;12.98;;;;;;;;;;10184863;28;20093;-64
2023/03/30 20:34:08;;;;;;;17.33;11.93;;;;;;;;;;10185551;28;20138;-66
2023/03/30 20:39:04;;;;;;;19.98;12.15;;;;;;;;;;10185799;28;20048;-66
2023/03/30 20:44:02;;;;;;;21.52;14.38;;;;;;;;;;10185852;28;20135;-64
2023/03/30 20:49:00;;;;;;;16.15;13.98;;;;;;;;;;10186068;28;20044;-65
2023/03/30 20:53:54;;;;;;;20.45;15.30;;;;;;;;;;10185432;28;20051;-64
2023/03/30 20:58:47;;;;;;;31.35;20.45;;;;;;;;;;10185923;28;20040;-64
2023/03/30 21:03:43;;;;;;;29.58;22.00;;;;;;;;;;10185368;28;20048;-64
2023/03/30 21:08:36;;;;;;;20.42;15.70;;;;;;;;;;10185545;28;20051;-64
2023/03/30 21:13:29;;;;;;;20.73;14.20;;;;;;;;;;10187186;28;20097;-64
2023/03/30 21:18:22;;;;;;;21.10;13.77;;;;;;;;;;10192566;28;20064;-64
2023/03/30 21:23:17;;;;;;;29.10;13.95;;;;;;;;;;10188373;28;20052;-63
2023/03/30 21:28:10;;;;;;;32.30;13.05;;;;;;;;;;10191792;28;20052;-64
2023/03/30 21:33:04;;;;;;;18.58;13.05;;;;;;;;;;10184754;28;20060;-63
2023/03/30 21:37:57;;;;;;;22.05;14.48;;;;;;;;;;10190003;28;20047;-64
2023/03/30 21:42:51;;;;;;;18.52;13.10;;;;;;;;;;10189443;28;20064;-63
2023/03/30 21:47:45;;;;;;;21.80;13.82;;;;;;;;;;10189933;28;20125;-63
2023/03/30 21:52:38;;;;;;;19.55;14.88;;;;;;;;;;10189880;28;20067;-63
2023/03/30 21:57:33;;;;;;;20.30;13.88;;;;;;;;;;10189706;28;20741;-62
2023/03/30 22:02:26;;;;;;;17.10;12.80;;;;;;;;;;10186851;28;20082;-62
2023/03/30 22:07:20;;;;;;;15.57;12.57;;;;;;;;;;10187168;28;20094;-62
2023/03/30 22:12:14;;;;;;;24.45;12.00;;;;;;;;;;10183272;28;20044;-62
2023/03/30 22:17:10;;;;;;;17.40;10.93;;;;;;;;;;10181528;28;20558;-62
2023/03/30 22:22:03;;;;;;;16.38;11.85;;;;;;;;;;10185727;28;20040;-62
2023/03/30 22:26:57;;;;;;;19.92;11.45;;;;;;;;;;10188873;28;20083;-62
2023/03/30 22:31:54;;;;;;;16.65;11.88;;;;;;;;;;10184476;28;20040;-62
2023/03/30 22:36:48;;;;;;;14.98;10.35;;;;;;;;;;10181582;28;20093;-62
2023/03/30 22:41:42;;;;;;;14.02;8.63;;;;;;;;;;10189504;28;20500;-62
2023/03/30 22:46:36;;;;;;;14.55;10.15;;;;;;;;;;10187148;28;20135;-63
2023/03/30 22:51:32;;;;;;;16.10;11.68;;;;;;;;;;10189334;28;20036;-62
2023/03/30 22:56:26;;;;;;;15.55;11.15;;;;;;;;;;10188649;28;20185;-63
2023/03/30 23:01:20;;;;;;;13.93;10.07;;;;;;;;;;10178855;28;20047;-62
2023/03/30 23:06:13;;;;;;;15.43;10.10;;;;;;;;;;10187602;28;20043;-62
2023/03/30 23:11:07;;;;;;;13.18;10.20;;;;;;;;;;10188758;28;20058;-62
2023/03/30 23:16:00;;;;;;;13.50;9.85;;;;;;;;;;10188131;28;20047;-62
2023/03/30 23:20:56;;;;;;;15.00;11.02;;;;;;;;;;10187895;28;20508;-62
2023/03/30 23:25:51;;;;;;;16.02;10.90;;;;;;;;;;10187627;28;20044;-62
2023/03/30 23:30:45;;;;;;;17.63;12.13;;;;;;;;;;10187938;28;20079;-63
2023/03/30 23:35:40;;;;;;;18.60;11.52;;;;;;;;;;10187058;28;20091;-62
2023/03/30 23:40:33;;;;;;;16.13;11.43;;;;;;;;;;10186804;28;20051;-62
2023/03/30 23:45:27;;;;;;;17.67;12.55;;;;;;;;;;10186518;28;20079;-62
2023/03/30 23:50:21;;;;;;;16.15;12.65;;;;;;;;;;10177759;28;20074;-62
2023/03/30 23:55:17;;;;;;;18.30;13.93;;;;;;;;;;10186006;28;20475;-62
